KFAT/FAT METAR and TAF weather

Enter ICAO airport designator
Station Type Date Time Source
KFAT METAR 2020/04/05 05:53 UTC NOAA

KFAT 050553Z 32006KT 10SM SCT090 BKN110 14/06 A2980 RMK AO2 SLP091 60000 T01390056 10200 20139 58001


Station Type Date Time Source
KFAT Decoded METAR 2020/04/05 05:53 UTC NOAA

FRESNO AIR TERMINAL, CA, United States (KFAT) 36-47N 119-43W 104M
Apr 05, 2020 - 01:53 AM EDT / 2020.04.05 0553 UTC
Wind: from the NW (320 degrees) at 7 MPH (6 KT):0
Visibility: 10 mile(s):0
Sky conditions: mostly cloudy
Temperature: 57.0 F (13.9 C)
Dew Point: 42.1 F (5.6 C)
Relative Humidity: 57%
Pressure (altimeter): 29.8 in. Hg (1009 hPa)
Pressure tendency: 0.00 inches (0.1 hPa) lower than three hours ago
ob: KFAT 050553Z 32006KT 10SM SCT090 BKN110 14/06 A2980 RMK AO2 SLP091 60000 T01390056 10200 20139 58001
cycle: 6

Station Type Date Time Source
KFAT TAF 2020/04/05 06:24 UTC NOAA

TAF KFAT 050521Z 0506/0606 32007KT P6SM SCT050 BKN120
FM050900 12011KT P6SM FEW030 BKN050 OVC120
FM051900 15014KT 6SM -RA SCT030 OVC050
TEMPO 0519/0523 15016G26KT 4SM RA BR BKN030 OVC050
FM060400 15006KT 4SM RA BR BKN030 OVC050

Example: see airport list